Time;durP1;ratioP1;P1;durP2;ratioP2;P2;SDS_P1;SDS_P2;PMS_P1;PMS_P2;Temp;Humidity;BMP_temperature;BMP_pressure;BME280_temperature;BME280_humidity;BME280_pressure;Samples;Min_cycle;Max_cycle;Signal;HPM_P1;HPM_P2
2021/12/11 00:00:19;;;;;;;5.57;0.60;;;17.30;99.90;;;;;;4993232;28;20023;-63
2021/12/11 00:03:03;;;;;;;2.95;0.63;;;17.30;99.90;;;;;;4990515;28;20530;-64
2021/12/11 00:05:33;;;;;;;1.95;0.52;;;17.30;99.90;;;;;;4992894;28;20058;-64
2021/12/11 00:08:01;;;;;;;2.67;0.30;;;17.40;99.90;;;;;;4993729;28;20018;-63
2021/12/11 00:10:35;;;;;;;1.55;0.60;;;17.50;99.90;;;;;;4993637;28;20057;-62
2021/12/11 00:13:08;;;;;;;1.92;0.25;;;17.50;99.90;;;;;;4991961;28;20514;-62
2021/12/11 00:15:38;;;;;;;0.55;0.30;;;17.50;99.90;;;;;;4990860;28;20030;-63
2021/12/11 00:18:10;;;;;;;1.33;0.30;;;17.30;99.90;;;;;;4993731;28;20037;-66
2021/12/11 00:20:42;;;;;;;0.98;0.25;;;17.20;99.90;;;;;;4984758;28;20025;-64
2021/12/11 00:23:10;;;;;;;2.08;0.40;;;17.30;99.90;;;;;;4984889;28;20098;-64
2021/12/11 00:25:45;;;;;;;1.42;0.47;;;17.40;99.90;;;;;;4991125;28;20022;-64
2021/12/11 00:28:13;;;;;;;1.55;0.50;;;17.30;99.90;;;;;;4993439;28;20089;-63
2021/12/11 00:30:45;;;;;;;1.88;0.75;;;17.40;99.90;;;;;;4994282;28;20113;-62
2021/12/11 00:33:25;;;;;;;5.30;0.73;;;17.50;99.90;;;;;;4997562;28;20391;-63
2021/12/11 00:35:55;;;;;;;2.63;0.50;;;17.70;99.90;;;;;;4997327;28;20026;-64
2021/12/11 00:38:32;;;;;;;1.77;0.68;;;17.80;99.90;;;;;;4997382;28;20054;-63
2021/12/11 00:41:00;;;;;;;3.38;0.50;;;17.90;99.90;;;;;;4986871;28;20427;-63
2021/12/11 00:43:30;;;;;;;3.10;0.43;;;18.10;99.90;;;;;;4988141;28;20031;-64
2021/12/11 00:45:58;;;;;;;2.63;0.57;;;18.40;99.90;;;;;;4994918;28;20019;-63
2021/12/11 00:48:27;;;;;;;3.03;0.80;;;18.60;99.90;;;;;;4996374;28;20030;-63
2021/12/11 00:51:11;;;;;;;3.50;0.40;;;18.80;99.90;;;;;;4997231;28;20026;-64
2021/12/11 00:53:46;;;;;;;2.55;0.55;;;18.80;99.90;;;;;;4988173;28;20415;-63
2021/12/11 00:56:24;;;;;;;6.53;1.13;;;18.60;99.90;;;;;;4988283;28;20026;-61
2021/12/11 00:58:55;;;;;;;2.05;0.90;;;18.50;99.90;;;;;;4988592;28;20101;-63
2021/12/11 01:01:27;;;;;;;1.45;0.50;;;18.50;99.90;;;;;;4986911;28;20046;-63
2021/12/11 01:03:54;;;;;;;3.97;0.90;;;18.60;99.90;;;;;;4986145;28;20081;-64
2021/12/11 01:06:35;;;;;;;5.93;1.13;;;18.60;99.90;;;;;;4987601;28;20034;-64
2021/12/11 01:09:11;;;;;;;2.45;0.80;;;18.60;99.90;;;;;;4996969;28;20026;-63
2021/12/11 01:12:04;;;;;;;1.13;0.68;;;18.70;99.90;;;;;;4993405;28;20375;-64
2021/12/11 01:14:51;;;;;;;1.30;0.60;;;18.60;99.90;;;;;;4993106;28;20044;-66
2021/12/11 01:17:25;;;;;;;3.17;0.57;;;18.30;99.90;;;;;;4995414;28;20042;-64
2021/12/11 01:20:00;;;;;;;13.13;1.10;;;18.20;99.90;;;;;;4995653;28;20026;-65
2021/12/11 01:22:35;;;;;;;1.17;0.45;;;18.00;99.90;;;;;;4995394;28;20479;-63
2021/12/11 01:25:21;;;;;;;2.67;0.60;;;17.90;99.90;;;;;;4991219;28;20501;-65
2021/12/11 01:27:53;;;;;;;2.50;0.70;;;17.90;99.90;;;;;;4988192;28;20035;-66
2021/12/11 01:30:30;;;;;;;3.90;1.25;;;18.00;99.90;;;;;;4994623;28;20026;-66
2021/12/11 01:32:57;;;;;;;5.22;0.85;;;18.00;99.90;;;;;;4994024;28;20479;-67
2021/12/11 01:35:26;;;;;;;3.38;0.40;;;18.00;99.90;;;;;;4994332;28;20033;-65
2021/12/11 01:38:06;;;;;;;1.88;0.85;;;18.10;99.90;;;;;;4994108;28;20042;-67
2021/12/11 01:40:34;;;;;;;5.28;0.60;;;18.10;99.90;;;;;;4994755;28;20034;-64
2021/12/11 01:43:05;;;;;;;3.67;0.50;;;18.10;99.90;;;;;;4993006;28;20030;-67
2021/12/11 01:45:34;;;;;;;3.80;0.50;;;17.80;99.90;;;;;;4994516;28;20550;-63
2021/12/11 01:48:03;;;;;;;3.40;0.63;;;17.80;99.90;;;;;;4995126;28;20212;-65
2021/12/11 01:50:40;;;;;;;2.67;0.63;;;17.90;99.90;;;;;;4995139;28;20391;-64
2021/12/11 01:53:14;;;;;;;3.53;0.60;;;18.00;99.90;;;;;;4994974;28;20038;-63
2021/12/11 01:55:56;;;;;;;2.30;0.55;;;18.00;99.90;;;;;;4994623;28;20495;-67
2021/12/11 01:58:34;;;;;;;1.30;0.50;;;18.00;99.90;;;;;;4992651;28;20125;-62
2021/12/11 02:01:10;;;;;;;1.77;0.60;;;18.00;99.90;;;;;;4994701;28;20035;-63
2021/12/11 02:03:38;;;;;;;7.18;1.25;;;17.90;99.90;;;;;;4994852;28;20058;-61
2021/12/11 02:06:07;;;;;;;2.70;0.40;;;17.80;99.90;;;;;;4994645;28;20114;-63
2021/12/11 02:08:38;;;;;;;2.47;0.30;;;17.90;99.90;;;;;;4994589;28;20589;-66
2021/12/11 02:11:16;;;;;;;2.65;0.35;;;17.90;99.90;;;;;;4994852;28;20076;-65
2021/12/11 02:13:53;;;;;;;2.22;0.40;;;17.90;99.90;;;;;;4994818;28;20027;-62
2021/12/11 02:16:25;;;;;;;3.33;0.40;;;17.90;99.90;;;;;;4994666;28;20065;-62
2021/12/11 02:18:59;;;;;;;5.10;0.68;;;17.90;99.90;;;;;;4994597;28;20364;-65
2021/12/11 02:21:28;;;;;;;4.47;0.50;;;17.90;99.90;;;;;;4994700;28;20022;-63
2021/12/11 02:24:20;;;;;;;4.50;0.55;;;17.90;99.90;;;;;;4994428;28;20026;-63
2021/12/11 02:26:48;;;;;;;3.13;0.77;;;17.90;99.90;;;;;;4994566;28;20383;-69
2021/12/11 02:29:25;;;;;;;4.45;1.02;;;17.90;99.90;;;;;;4994305;28;20045;-63
2021/12/11 02:32:01;;;;;;;3.60;1.02;;;17.90;99.90;;;;;;4994390;28;20041;-66
2021/12/11 02:34:37;;;;;;;1.88;0.98;;;17.80;99.90;;;;;;4994372;28;20026;-65
2021/12/11 02:37:15;;;;;;;1.45;0.20;;;17.70;99.90;;;;;;4992677;28;20102;-65
2021/12/11 02:39:46;;;;;;;0.80;0.30;;;17.70;99.90;;;;;;4993982;28;20031;-65
2021/12/11 02:42:27;;;;;;;2.35;0.65;;;17.70;99.90;;;;;;4994369;28;20034;-62
2021/12/11 02:45:07;;;;;;;1.83;0.55;;;17.70;99.90;;;;;;4994099;28;20038;-65
2021/12/11 02:47:45;;;;;;;1.40;0.60;;;17.90;99.90;;;;;;4994145;28;20031;-62
2021/12/11 02:50:31;;;;;;;4.57;0.60;;;18.10;99.90;;;;;;4994099;28;20388;-64
2021/12/11 02:53:00;;;;;;;6.75;0.63;;;18.20;99.90;;;;;;4993801;28;20026;-62
2021/12/11 02:55:48;;;;;;;4.70;0.63;;;18.20;99.90;;;;;;4994360;28;20023;-64
2021/12/11 02:58:26;;;;;;;3.40;0.40;;;18.30;99.90;;;;;;4994436;28;20442;-64
2021/12/11 03:01:01;;;;;;;4.35;0.80;;;18.30;99.90;;;;;;4989975;28;20042;-64
2021/12/11 03:03:34;;;;;;;1.73;0.60;;;18.30;99.90;;;;;;4992317;28;20068;-64
2021/12/11 03:06:13;;;;;;;2.25;0.60;;;18.10;99.90;;;;;;4993633;28;20113;-64
2021/12/11 03:08:41;;;;;;;4.65;1.00;;;17.90;99.90;;;;;;4993513;28;20057;-65
2021/12/11 03:11:12;;;;;;;3.50;0.88;;;17.80;99.90;;;;;;4993991;28;20050;-65
2021/12/11 03:13:40;;;;;;;1.65;0.60;;;17.70;99.90;;;;;;4993996;28;20081;-63
2021/12/11 03:16:09;;;;;;;6.80;1.20;;;17.70;99.90;;;;;;4993877;28;20061;-64
2021/12/11 03:18:37;;;;;;;2.53;0.75;;;17.70;99.90;;;;;;4993643;28;20537;-63
2021/12/11 03:21:05;;;;;;;3.92;0.98;;;17.70;99.90;;;;;;4993657;28;20108;-63
2021/12/11 03:23:32;;;;;;;1.50;0.60;;;17.80;99.90;;;;;;4993688;28;20022;-66
2021/12/11 03:26:00;;;;;;;0.88;0.60;;;17.90;99.90;;;;;;4993640;28;20109;-64
2021/12/11 03:28:27;;;;;;;2.20;0.60;;;18.00;99.90;;;;;;4993627;28;20034;-66
2021/12/11 03:30:58;;;;;;;6.57;0.60;;;18.10;99.90;;;;;;4993178;28;20034;-65
2021/12/11 03:33:30;;;;;;;1.90;0.80;;;18.20;99.90;;;;;;4993121;28;20506;-66
2021/12/11 03:35:58;;;;;;;5.18;0.50;;;18.10;99.90;;;;;;4992898;28;20023;-64
2021/12/11 03:38:26;;;;;;;2.92;0.75;;;18.10;99.90;;;;;;4993067;28;20483;-66
2021/12/11 03:40:54;;;;;;;6.18;0.90;;;18.00;99.90;;;;;;4992432;28;20454;-65
2021/12/11 03:43:23;;;;;;;1.75;0.50;;;17.90;99.90;;;;;;4992803;28;20030;-64
2021/12/11 03:45:55;;;;;;;6.22;0.80;;;17.80;99.90;;;;;;4992830;28;20027;-65
2021/12/11 03:48:28;;;;;;;1.92;0.93;;;17.80;99.90;;;;;;4992587;28;20105;-64
2021/12/11 03:50:55;;;;;;;2.50;0.63;;;17.80;99.90;;;;;;4992772;28;20034;-64
2021/12/11 03:53:23;;;;;;;7.15;0.95;;;17.80;99.90;;;;;;4992602;28;20463;-63
2021/12/11 03:55:55;;;;;;;6.18;0.50;;;17.80;99.90;;;;;;4992664;28;20034;-64
2021/12/11 03:58:23;;;;;;;1.33;0.60;;;17.80;99.90;;;;;;4992533;28;20466;-61
2021/12/11 04:01:02;;;;;;;0.98;0.57;;;17.80;99.90;;;;;;4992383;28;20110;-64
2021/12/11 04:03:33;;;;;;;1.88;0.52;;;17.90;99.90;;;;;;4992628;28;20034;-63
2021/12/11 04:06:04;;;;;;;3.63;0.70;;;18.00;99.90;;;;;;4992495;28;20113;-64
2021/12/11 04:08:40;;;;;;;3.50;0.77;;;18.00;99.90;;;;;;4992498;28;20419;-64
2021/12/11 04:11:11;;;;;;;4.65;0.63;;;18.10;99.90;;;;;;4992504;28;20065;-64
2021/12/11 04:13:38;;;;;;;5.93;0.60;;;18.10;99.90;;;;;;4992471;28;20484;-65
2021/12/11 04:16:08;;;;;;;1.75;0.50;;;18.00;99.90;;;;;;4992436;28;20022;-64
2021/12/11 04:18:36;;;;;;;4.70;1.10;;;18.00;99.90;;;;;;4980998;28;20042;-65
2021/12/11 04:21:04;;;;;;;1.55;0.70;;;18.00;99.90;;;;;;4981471;28;20381;-65
2021/12/11 04:23:32;;;;;;;1.83;0.52;;;18.10;99.90;;;;;;4981612;28;20033;-64
2021/12/11 04:26:00;;;;;;;3.03;0.90;;;18.10;99.90;;;;;;4982639;28;20026;-65
2021/12/11 04:28:30;;;;;;;1.60;0.63;;;18.10;99.90;;;;;;4980795;28;20022;-63
2021/12/11 04:31:05;;;;;;;3.60;0.70;;;18.10;99.90;;;;;;4997390;28;20100;-66
2021/12/11 04:33:40;;;;;;;4.13;0.77;;;18.10;99.90;;;;;;4988181;28;20079;-65
2021/12/11 04:36:09;;;;;;;;;;;18.10;99.90;;;;;;4980348;28;20034;-62
2021/12/11 04:38:38;;;;;;;4.30;1.30;;;18.10;99.90;;;;;;4988946;28;20359;-63
2021/12/11 04:41:07;;;;;;;3.95;0.50;;;18.10;99.90;;;;;;4987895;28;20030;-63
2021/12/11 04:43:36;;;;;;;6.32;0.80;;;18.00;99.90;;;;;;4989676;28;20101;-65
2021/12/11 04:46:08;;;;;;;3.10;1.00;;;18.00;99.90;;;;;;4989182;28;20019;-63
2021/12/11 04:48:54;;;;;;;2.25;0.50;;;18.00;99.90;;;;;;4989329;28;20023;-64
2021/12/11 04:58:05;;;;;;;1.52;0.77;;;17.80;99.90;;;;;;4997280;28;20030;-63
2021/12/11 05:00:19;;;;;;;3.28;0.75;;;17.70;99.90;;;;;;4992513;28;20050;-64
2021/12/11 05:13:23;;;;;;;1.77;0.70;;;18.00;99.90;;;;;;4993609;28;20403;-66
2021/12/11 05:15:52;;;;;;;1.25;0.43;;;18.10;99.90;;;;;;4991740;28;20483;-65
2021/12/11 05:18:24;;;;;;;6.20;0.80;;;18.30;99.90;;;;;;4994915;28;20487;-66
2021/12/11 05:20:55;;;;;;;3.58;0.85;;;18.50;99.90;;;;;;4995538;28;20384;-65
2021/12/11 05:23:23;;;;;;;1.90;0.65;;;18.50;99.90;;;;;;4992605;28;20034;-68
2021/12/11 05:25:50;;;;;;;5.78;0.90;;;18.30;99.90;;;;;;4994159;28;20030;-68
2021/12/11 05:28:18;;;;;;;1.63;0.57;;;18.20;99.90;;;;;;4994169;28;20026;-65
2021/12/11 05:30:49;;;;;;;8.10;0.95;;;18.50;99.90;;;;;;4994037;28;20022;-65
2021/12/11 05:33:18;;;;;;;2.15;0.70;;;19.00;99.90;;;;;;4992997;28;20034;-65
2021/12/11 05:35:48;;;;;;;1.17;0.60;;;19.40;99.90;;;;;;4993112;28;20077;-64
2021/12/11 05:38:17;;;;;;;3.33;0.73;;;19.70;99.90;;;;;;4992973;28;20030;-62
2021/12/11 05:40:49;;;;;;;3.17;0.95;;;19.70;99.90;;;;;;4993138;28;20521;-64
2021/12/11 05:43:17;;;;;;;2.78;0.95;;;19.70;99.90;;;;;;4984833;28;20615;-64
2021/12/11 05:45:45;;;;;;;3.97;0.77;;;19.50;99.90;;;;;;4973632;28;20027;-64
2021/12/11 05:48:12;;;;;;;2.17;0.75;;;19.50;99.90;;;;;;4973563;28;20503;-64
2021/12/11 05:50:45;;;;;;;2.63;1.02;;;19.30;99.90;;;;;;4973562;28;20571;-66
2021/12/11 05:53:14;;;;;;;3.70;0.82;;;19.10;99.90;;;;;;4973570;28;20023;-65
2021/12/11 05:55:42;;;;;;;2.33;0.63;;;19.00;99.90;;;;;;4976106;28;20023;-67
2021/12/11 05:58:12;;;;;;;2.65;0.47;;;18.90;99.90;;;;;;4973431;28;20089;-64
2021/12/11 06:00:44;;;;;;;4.97;1.08;;;18.80;99.90;;;;;;4974040;28;20101;-63
2021/12/11 06:03:12;;;;;;;3.75;1.00;;;18.70;99.90;;;;;;4975323;28;20117;-66
2021/12/11 06:05:41;;;;;;;4.00;0.95;;;18.80;99.90;;;;;;4977991;28;20047;-63
2021/12/11 06:08:09;;;;;;;7.05;0.70;;;18.80;99.90;;;;;;4975376;28;20019;-64
2021/12/11 06:10:39;;;;;;;4.32;0.70;;;18.70;99.90;;;;;;4975322;28;20062;-64
2021/12/11 06:13:09;;;;;;;10.40;1.25;;;18.70;99.90;;;;;;4975339;28;20110;-62
2021/12/11 06:15:38;;;;;;;4.22;0.98;;;18.60;99.90;;;;;;4975073;28;20455;-63
2021/12/11 06:18:07;;;;;;;7.68;1.10;;;18.60;99.90;;;;;;4974985;28;20066;-66
2021/12/11 06:20:35;;;;;;;6.65;1.00;;;18.50;99.90;;;;;;4975320;28;20018;-68
2021/12/11 06:23:03;;;;;;;4.90;1.40;;;18.50;99.90;;;;;;4974914;28;20113;-64
2021/12/11 06:25:33;;;;;;;3.28;0.60;;;18.20;99.90;;;;;;4974954;28;20027;-65
2021/12/11 06:28:00;;;;;;;2.42;0.95;;;18.00;99.90;;;;;;4974131;28;20019;-63
2021/12/11 06:30:28;;;;;;;4.25;1.02;;;18.10;99.90;;;;;;4974532;28;20027;-67
2021/12/11 06:32:56;;;;;;;5.65;1.00;;;18.10;99.90;;;;;;4974728;28;20035;-65
2021/12/11 06:35:41;;;;;;;4.78;0.60;;;17.90;99.90;;;;;;4973913;28;20202;-66
2021/12/11 06:38:11;;;;;;;3.47;1.08;;;17.70;99.90;;;;;;4978649;28;20495;-65
2021/12/11 06:40:40;;;;;;;6.15;1.33;;;17.60;99.90;;;;;;4974061;28;20084;-63
2021/12/11 06:43:07;;;;;;;4.00;0.77;;;17.50;99.90;;;;;;4973558;28;20097;-66
2021/12/11 06:45:35;;;;;;;4.35;0.80;;;17.50;99.90;;;;;;4973742;28;20464;-66
2021/12/11 06:48:02;;;;;;;2.10;0.80;;;17.50;99.90;;;;;;4973682;28;20038;-66
2021/12/11 06:50:30;;;;;;;6.20;1.20;;;17.50;99.90;;;;;;4973592;28;20038;-67
2021/12/11 06:53:00;;;;;;;2.40;0.52;;;17.40;99.90;;;;;;4973421;28;20177;-65
2021/12/11 06:55:28;;;;;;;2.92;0.70;;;17.30;99.90;;;;;;4973450;28;20030;-67
2021/12/11 06:57:55;;;;;;;3.45;1.05;;;17.40;99.90;;;;;;4972832;28;20070;-65
2021/12/11 07:00:23;;;;;;;4.88;0.95;;;17.40;99.90;;;;;;4973455;28;20030;-65
2021/12/11 07:02:50;;;;;;;2.38;0.70;;;17.50;99.90;;;;;;4973157;28;20419;-65
2021/12/11 07:05:17;;;;;;;3.72;0.80;;;17.70;99.90;;;;;;4973117;28;20031;-66
2021/12/11 07:07:46;;;;;;;5.13;1.02;;;17.90;99.90;;;;;;4973242;28;20027;-64
2021/12/11 07:10:23;;;;;;;4.03;1.08;;;18.10;99.90;;;;;;4972980;28;20054;-67
2021/12/11 07:12:51;;;;;;;2.45;0.80;;;18.10;99.90;;;;;;4975865;28;20440;-66
2021/12/11 07:15:19;;;;;;;3.80;1.25;;;18.20;99.90;;;;;;4972881;28;20399;-64
2021/12/11 07:17:46;;;;;;;3.53;0.75;;;18.30;99.90;;;;;;4973108;28;20518;-66
2021/12/11 07:20:14;;;;;;;2.97;0.90;;;18.20;99.90;;;;;;4972943;28;20030;-66
2021/12/11 07:22:42;;;;;;;3.83;1.27;;;18.20;99.90;;;;;;4972864;28;20031;-64
2021/12/11 07:25:16;;;;;;;4.30;2.60;;;18.10;99.90;;;;;;4972852;28;20022;-65
2021/12/11 07:27:45;;;;;;;5.60;1.90;;;18.00;99.90;;;;;;4978420;28;20121;-63
2021/12/11 07:30:14;;;;;;;4.45;1.23;;;18.00;99.90;;;;;;4992147;28;20061;-65
2021/12/11 07:32:41;;;;;;;7.28;1.30;;;18.20;99.90;;;;;;4992051;28;20057;-67
2021/12/11 07:35:10;;;;;;;4.03;1.00;;;18.30;99.90;;;;;;4991936;28;20382;-66
2021/12/11 07:37:38;;;;;;;4.88;0.85;;;18.50;99.90;;;;;;4991836;28;20529;-65
2021/12/11 07:40:09;;;;;;;9.18;1.55;;;18.70;99.90;;;;;;4991595;28;20411;-66
2021/12/11 07:42:37;;;;;;;3.08;1.15;;;18.50;99.90;;;;;;4991750;28;20172;-66
2021/12/11 07:45:06;;;;;;;7.00;1.63;;;18.50;99.90;;;;;;4989355;28;20083;-64
2021/12/11 07:47:33;;;;;;;4.80;1.25;;;18.30;99.90;;;;;;4991821;28;20026;-66
2021/12/11 07:50:00;;;;;;;5.50;1.30;;;17.90;99.90;;;;;;4991537;28;20022;-65
2021/12/11 07:52:28;;;;;;;3.28;1.50;;;17.70;99.90;;;;;;4991717;28;20042;-65
2021/12/11 07:54:55;;;;;;;4.53;1.20;;;17.60;99.90;;;;;;4991636;28;20030;-66
2021/12/11 07:57:23;;;;;;;3.58;1.00;;;17.40;99.90;;;;;;4991524;28;20403;-64
2021/12/11 07:59:50;;;;;;;5.28;0.88;;;17.30;99.90;;;;;;4991618;28;20053;-66
2021/12/11 08:02:18;;;;;;;3.63;0.93;;;17.20;99.90;;;;;;4990778;28;20058;-65
2021/12/11 08:04:45;;;;;;;3.78;1.15;;;17.10;99.90;;;;;;4991581;28;20018;-67
2021/12/11 08:07:13;;;;;;;8.48;0.80;;;17.10;99.90;;;;;;4991490;28;20038;-66
2021/12/11 08:09:40;;;;;;;5.32;0.80;;;17.10;99.90;;;;;;4991625;28;20034;-65
2021/12/11 08:12:08;;;;;;;5.15;1.33;;;17.10;99.90;;;;;;4991595;28;20030;-65
2021/12/11 08:14:36;;;;;;;5.05;0.95;;;17.00;99.90;;;;;;4991458;28;20036;-64
2021/12/11 08:17:06;;;;;;;3.00;1.27;;;17.00;99.90;;;;;;4991318;28;20022;-65
2021/12/11 08:19:34;;;;;;;6.15;0.93;;;17.00;99.90;;;;;;4991423;28;20065;-65
2021/12/11 08:22:05;;;;;;;3.30;1.05;;;16.90;99.90;;;;;;4990737;28;20033;-66
2021/12/11 08:24:34;;;;;;;2.97;0.88;;;16.90;99.90;;;;;;4991326;28;20499;-66
2021/12/11 08:27:09;;;;;;;7.63;1.35;;;16.90;99.90;;;;;;4991078;28;20065;-65
2021/12/11 08:29:37;;;;;;;6.57;1.30;;;16.90;99.90;;;;;;4991215;28;20029;-67
2021/12/11 08:32:04;;;;;;;3.50;0.80;;;16.80;99.90;;;;;;4991203;28;20054;-66
2021/12/11 08:34:33;;;;;;;4.60;1.10;;;16.80;99.90;;;;;;4991226;28;20386;-65
2021/12/11 08:37:02;;;;;;;7.90;1.42;;;16.80;99.90;;;;;;4990969;28;20057;-64
2021/12/11 08:39:30;;;;;;;10.32;1.73;;;16.70;99.90;;;;;;4990662;28;20471;-66
2021/12/11 08:42:00;;;;;;;3.60;1.08;;;16.60;99.90;;;;;;4990527;28;20806;-65
2021/12/11 08:44:33;;;;;;;5.47;1.50;;;16.60;99.90;;;;;;4987995;28;20022;-66
2021/12/11 08:47:03;;;;;;;9.43;2.17;;;16.60;99.90;;;;;;4991078;28;20027;-65
2021/12/11 08:49:33;;;;;;;3.08;1.02;;;16.50;99.90;;;;;;4990763;28;20118;-65
2021/12/11 08:52:19;;;;;;;5.15;1.15;;;16.50;99.90;;;;;;4992249;28;20022;-63
2021/12/11 08:54:46;;;;;;;;;;;16.50;99.90;;;;;;4995463;28;20033;-62
2021/12/11 08:57:18;;;;;;;4.65;0.90;;;16.40;99.90;;;;;;4994028;28;20005;-63
2021/12/11 08:59:54;;;;;;;4.50;0.90;;;16.40;99.90;;;;;;4994224;28;20030;-63
2021/12/11 09:02:25;;;;;;;;;;;16.40;99.90;;;;;;4993919;28;20045;-63
2021/12/11 09:05:11;;;;;;;4.28;1.00;;;16.30;99.90;;;;;;4992510;28;19906;-63
2021/12/11 09:07:47;;;;;;;6.72;1.15;;;16.30;99.90;;;;;;4993862;28;20026;-62
2021/12/11 09:10:20;;;;;;;;;;;16.20;99.90;;;;;;4993633;28;20081;-63
2021/12/11 09:12:55;;;;;;;8.45;1.35;;;16.20;99.90;;;;;;4991557;28;19906;-62
2021/12/11 09:15:37;;;;;;;6.80;1.27;;;16.10;99.90;;;;;;4991603;28;20027;-64
2021/12/11 09:18:11;;;;;;;10.15;1.27;;;16.10;99.90;;;;;;4991628;28;20031;-62
2021/12/11 09:21:10;;;;;;;12.63;1.75;;;16.10;99.90;;;;;;4993776;28;20032;-63
2021/12/11 09:23:43;;;;;;;6.50;1.40;;;16.00;99.90;;;;;;4993060;28;20390;-63
2021/12/11 09:26:20;;;;;;;2.80;0.93;;;16.00;99.90;;;;;;4993097;28;20082;-61
2021/12/11 09:28:50;;;;;;;6.70;1.40;;;16.00;99.90;;;;;;4993622;28;20494;-62
2021/12/11 09:31:28;;;;;;;10.35;1.40;;;15.90;99.90;;;;;;4993397;28;20160;-64
2021/12/11 09:34:02;;;;;;;6.00;1.13;;;15.90;99.90;;;;;;4993617;28;20101;-62
2021/12/11 09:36:34;;;;;;;3.65;1.10;;;15.90;99.90;;;;;;4993720;28;20033;-62
2021/12/11 09:39:11;;;;;;;6.57;1.80;;;15.90;99.90;;;;;;4993168;28;20046;-62
2021/12/11 09:41:38;;;;;;;11.65;1.70;;;15.90;99.90;;;;;;4992241;28;21888;-63
2021/12/11 09:44:13;;;;;;;5.57;1.38;;;15.90;99.90;;;;;;4992036;28;20110;-61
2021/12/11 09:46:50;;;;;;;3.63;1.55;;;15.80;99.90;;;;;;4992958;28;20030;-62
2021/12/11 09:49:21;;;;;;;3.78;1.00;;;15.80;99.90;;;;;;4993294;28;20121;-62
2021/12/11 09:51:58;;;;;;;7.50;1.67;;;15.80;99.90;;;;;;4993371;28;20540;-62
2021/12/11 09:54:26;;;;;;;2.70;1.00;;;15.80;99.90;;;;;;4992038;28;20387;-62
2021/12/11 09:56:58;;;;;;;6.00;1.10;;;15.80;99.90;;;;;;4993080;28;20105;-62
2021/12/11 09:59:29;;;;;;;5.85;1.42;;;15.80;99.90;;;;;;4992392;28;20448;-62
2021/12/11 10:02:05;;;;;;;5.75;1.33;;;15.70;99.90;;;;;;4992405;28;20423;-63
2021/12/11 10:04:47;;;;;;;4.82;1.63;;;15.70;99.90;;;;;;4992924;28;20396;-62
2021/12/11 10:07:28;;;;;;;5.00;1.15;;;15.70;99.90;;;;;;4992729;28;20038;-62
2021/12/11 10:10:21;;;;;;;7.03;1.50;;;15.60;99.90;;;;;;4993132;28;20380;-63
2021/12/11 10:12:57;;;;;;;6.45;2.03;;;15.60;99.90;;;;;;4993014;28;20034;-62
2021/12/11 10:15:33;;;;;;;9.63;1.40;;;15.50;99.90;;;;;;4992951;28;20033;-63
2021/12/11 10:18:13;;;;;;;6.50;1.95;;;15.50;99.90;;;;;;4992308;28;20034;-64
2021/12/11 10:20:49;;;;;;;5.45;1.15;;;15.50;99.90;;;;;;4992690;28;20113;-62
2021/12/11 10:23:20;;;;;;;6.38;2.15;;;15.50;99.90;;;;;;4992689;28;20021;-62
2021/12/11 10:25:50;;;;;;;9.75;1.13;;;15.50;99.90;;;;;;4992797;28;20387;-64
2021/12/11 10:28:20;;;;;;;9.63;2.30;;;15.40;99.90;;;;;;4992632;28;20169;-62
2021/12/11 10:30:54;;;;;;;9.02;2.08;;;15.40;99.90;;;;;;4992920;28;20038;-62
2021/12/11 10:33:25;;;;;;;4.63;1.63;;;15.40;99.90;;;;;;4990900;28;20033;-61
2021/12/11 10:35:57;;;;;;;8.52;2.15;;;15.40;99.90;;;;;;4991823;28;20125;-62
2021/12/11 10:38:25;;;;;;;7.53;1.10;;;15.30;99.90;;;;;;4992463;28;20041;-62
2021/12/11 10:40:56;;;;;;;6.50;1.40;;;15.30;99.90;;;;;;4992245;28;20033;-61
2021/12/11 10:43:54;;;;;;;5.40;1.52;;;15.20;99.90;;;;;;4991874;28;20037;-61
2021/12/11 10:46:25;;;;;;;9.23;1.95;;;15.10;99.90;;;;;;4991153;28;20029;-61
2021/12/11 10:48:53;;;;;;;6.00;1.80;;;15.10;99.90;;;;;;4992482;28;20038;-62
2021/12/11 10:51:25;;;;;;;7.57;1.30;;;15.00;99.90;;;;;;4990526;28;20391;-62
2021/12/11 10:53:53;;;;;;;6.53;1.38;;;15.00;99.90;;;;;;4992238;28;20034;-64
2021/12/11 10:56:23;;;;;;;3.50;1.55;;;14.90;99.90;;;;;;4991997;28;20026;-62
2021/12/11 10:59:06;;;;;;;9.77;2.05;;;14.90;99.90;;;;;;4992021;28;20042;-62
2021/12/11 11:01:51;;;;;;;7.13;1.27;;;14.90;99.90;;;;;;4990305;28;20121;-62
2021/12/11 11:04:29;;;;;;;8.20;1.73;;;14.80;99.90;;;;;;4990924;28;20077;-62
2021/12/11 11:06:57;;;;;;;5.30;1.83;;;14.90;99.90;;;;;;4991193;28;20026;-62
2021/12/11 11:09:26;;;;;;;5.60;1.45;;;14.90;99.90;;;;;;4990150;28;20026;-62
2021/12/11 11:11:59;;;;;;;4.05;1.58;;;14.90;99.90;;;;;;4990950;28;20042;-61
2021/12/11 11:14:27;;;;;;;10.00;2.33;;;14.90;99.90;;;;;;4990376;28;20072;-61
2021/12/11 11:16:59;;;;;;;3.42;0.93;;;14.90;99.90;;;;;;4990931;28;20037;-63
2021/12/11 11:19:28;;;;;;;5.53;1.52;;;14.90;99.90;;;;;;4991773;28;20023;-62
2021/12/11 11:22:00;;;;;;;6.13;1.52;;;15.00;99.90;;;;;;4991230;28;20040;-62
2021/12/11 11:24:38;;;;;;;6.45;1.95;;;14.90;99.90;;;;;;4991528;28;20106;-61
2021/12/11 11:27:07;;;;;;;5.65;1.13;;;15.00;99.90;;;;;;4991502;28;20396;-62
2021/12/11 11:29:36;;;;;;;4.57;1.10;;;14.90;99.90;;;;;;4991526;28;20113;-62
2021/12/11 11:32:08;;;;;;;6.82;1.25;;;14.90;99.90;;;;;;4991252;28;20368;-63
2021/12/11 11:34:40;;;;;;;9.93;1.30;;;14.90;99.90;;;;;;4991335;28;20057;-62
2021/12/11 11:37:10;;;;;;;4.50;1.50;;;14.90;99.90;;;;;;4990472;28;20477;-63
2021/12/11 11:39:38;;;;;;;7.30;1.50;;;14.80;99.90;;;;;;4990934;28;20043;-63
2021/12/11 11:42:13;;;;;;;13.40;1.55;;;14.80;99.90;;;;;;4991189;28;20212;-62
2021/12/11 11:44:43;;;;;;;3.88;1.00;;;14.70;99.90;;;;;;4990899;28;20026;-62
2021/12/11 11:47:13;;;;;;;5.90;0.80;;;14.70;99.90;;;;;;4991333;28;20376;-62
2021/12/11 11:49:40;;;;;;;4.90;1.33;;;14.60;99.90;;;;;;4991078;28;20026;-63
2021/12/11 11:52:16;;;;;;;9.93;1.60;;;14.60;99.90;;;;;;4991296;28;20536;-63
2021/12/11 11:54:46;;;;;;;9.25;1.40;;;14.60;99.90;;;;;;4991124;28;20487;-63
2021/12/11 11:57:19;;;;;;;5.22;1.27;;;14.50;99.90;;;;;;4991627;28;20117;-63
2021/12/11 11:59:49;;;;;;;5.70;1.27;;;14.50;99.90;;;;;;4989800;28;20019;-63
2021/12/11 12:02:20;;;;;;;2.92;1.02;;;14.50;99.90;;;;;;4878874;28;3278724;-63
2021/12/11 12:04:51;;;;;;;14.98;1.50;;;14.50;99.90;;;;;;4990639;28;20092;-62
2021/12/11 12:07:25;;;;;;;3.60;1.35;;;14.50;99.90;;;;;;4992358;28;20026;-63
2021/12/11 12:09:55;;;;;;;7.00;1.58;;;14.50;99.90;;;;;;4992558;28;20376;-64
2021/12/11 12:12:23;;;;;;;7.07;1.60;;;14.50;99.90;;;;;;4989749;28;20387;-62
2021/12/11 12:14:54;;;;;;;9.07;1.45;;;14.40;99.90;;;;;;4992354;28;20030;-62
2021/12/11 12:17:25;;;;;;;4.15;1.58;;;14.40;99.90;;;;;;4990151;28;20105;-62
2021/12/11 12:19:54;;;;;;;6.55;1.50;;;14.30;99.90;;;;;;4992503;28;20046;-61
2021/12/11 12:22:23;;;;;;;5.25;1.65;;;14.30;99.90;;;;;;4991038;28;20022;-62
2021/12/11 12:24:53;;;;;;;9.00;1.23;;;14.30;99.90;;;;;;4991450;28;20168;-62
2021/12/11 12:27:26;;;;;;;9.57;1.30;;;14.30;99.90;;;;;;4990552;28;20033;-62
2021/12/11 12:29:55;;;;;;;7.75;1.00;;;14.30;99.90;;;;;;4991432;28;20022;-62
2021/12/11 12:32:36;;;;;;;4.63;1.30;;;14.20;99.90;;;;;;4991565;28;20157;-62
2021/12/11 12:35:08;;;;;;;4.18;1.00;;;14.20;99.90;;;;;;4991453;28;20545;-61
2021/12/11 12:37:37;;;;;;;2.97;1.13;;;14.20;99.90;;;;;;4990539;28;20035;-61
2021/12/11 12:40:10;;;;;;;7.45;1.52;;;14.20;99.90;;;;;;4990189;28;20022;-61
2021/12/11 12:42:51;;;;;;;3.15;1.23;;;14.20;99.90;;;;;;4991960;28;20392;-62
2021/12/11 12:45:25;;;;;;;5.82;1.30;;;14.10;99.90;;;;;;4990740;28;20033;-62
2021/12/11 12:48:01;;;;;;;7.53;1.23;;;14.10;99.90;;;;;;4991298;28;20026;-66
2021/12/11 12:50:36;;;;;;;6.82;1.38;;;14.10;99.90;;;;;;4992143;28;20026;-62
2021/12/11 12:53:04;;;;;;;4.30;0.90;;;14.10;99.90;;;;;;4992033;28;20027;-66
2021/12/11 12:55:41;;;;;;;4.47;1.13;;;14.10;99.90;;;;;;4988648;28;20037;-65
2021/12/11 12:58:20;;;;;;;4.63;1.13;;;14.10;99.90;;;;;;4990224;28;20093;-65
2021/12/11 13:00:52;;;;;;;6.80;1.40;;;14.00;99.90;;;;;;4990987;28;20106;-63
2021/12/11 13:03:23;;;;;;;6.82;1.30;;;14.00;99.90;;;;;;4992607;28;20057;-64
2021/12/11 13:05:56;;;;;;;6.10;1.63;;;13.90;99.90;;;;;;4990785;28;20534;-65
2021/12/11 13:08:28;;;;;;;7.47;1.77;;;14.00;99.90;;;;;;4992063;28;20455;-66
2021/12/11 13:11:00;;;;;;;9.18;1.35;;;14.00;99.90;;;;;;4992732;28;20026;-65
2021/12/11 13:13:28;;;;;;;4.63;0.73;;;13.90;99.90;;;;;;4992542;28;20110;-66
2021/12/11 13:16:22;;;;;;;8.38;1.75;;;13.90;99.90;;;;;;4992819;28;20454;-68
2021/12/11 13:18:55;;;;;;;8.73;1.25;;;13.90;99.90;;;;;;4990629;28;20462;-65
2021/12/11 13:21:40;;;;;;;5.00;1.10;;;13.90;99.90;;;;;;4992912;28;20146;-65
2021/12/11 13:24:11;;;;;;;4.97;1.30;;;13.90;99.90;;;;;;4993598;28;20081;-66
2021/12/11 13:26:41;;;;;;;8.93;1.38;;;14.00;99.90;;;;;;4993119;28;20030;-65
2021/12/11 13:29:13;;;;;;;4.43;0.90;;;14.00;99.90;;;;;;4993814;28;20030;-65